sensor_id;sensor_type;location;lat;lon;timestamp;P1;durP1;ratioP1;P2;durP2;ratioP2
20375;SDS011;10347;51.828;6.466;2022-12-18T00:01:13;43.35;;;19.02;;
20375;SDS011;10347;51.828;6.466;2022-12-18T00:03:41;43.30;;;19.10;;
20375;SDS011;10347;51.828;6.466;2022-12-18T00:06:06;35.95;;;17.63;;
20375;SDS011;10347;51.828;6.466;2022-12-18T00:08:34;51.92;;;21.17;;
20375;SDS011;10347;51.828;6.466;2022-12-18T00:11:03;44.25;;;20.50;;
20375;SDS011;10347;51.828;6.466;2022-12-18T00:13:30;44.75;;;19.92;;
20375;SDS011;10347;51.828;6.466;2022-12-18T00:15:55;43.45;;;19.88;;
20375;SDS011;10347;51.828;6.466;2022-12-18T00:18:27;44.80;;;19.67;;
20375;SDS011;10347;51.828;6.466;2022-12-18T00:20:53;55.45;;;23.20;;
20375;SDS011;10347;51.828;6.466;2022-12-18T00:23:18;46.83;;;20.98;;
20375;SDS011;10347;51.828;6.466;2022-12-18T00:25:44;49.38;;;21.00;;
20375;SDS011;10347;51.828;6.466;2022-12-18T00:28:09;56.88;;;22.63;;
20375;SDS011;10347;51.828;6.466;2022-12-18T00:30:35;55.50;;;22.90;;
20375;SDS011;10347;51.828;6.466;2022-12-18T00:33:00;44.75;;;20.52;;
20375;SDS011;10347;51.828;6.466;2022-12-18T00:35:26;54.80;;;22.20;;
20375;SDS011;10347;51.828;6.466;2022-12-18T00:37:52;41.53;;;19.27;;
20375;SDS011;10347;51.828;6.466;2022-12-18T00:40:17;44.00;;;20.58;;
20375;SDS011;10347;51.828;6.466;2022-12-18T00:42:43;45.53;;;20.35;;
20375;SDS011;10347;51.828;6.466;2022-12-18T00:45:20;49.25;;;20.48;;
20375;SDS011;10347;51.828;6.466;2022-12-18T00:47:54;44.85;;;20.40;;
20375;SDS011;10347;51.828;6.466;2022-12-18T00:50:20;38.65;;;18.10;;
20375;SDS011;10347;51.828;6.466;2022-12-18T00:52:47;40.88;;;18.75;;
20375;SDS011;10347;51.828;6.466;2022-12-18T00:55:13;42.90;;;19.77;;
20375;SDS011;10347;51.828;6.466;2022-12-18T00:57:39;43.85;;;21.30;;
20375;SDS011;10347;51.828;6.466;2022-12-18T01:00:05;42.63;;;19.33;;
20375;SDS011;10347;51.828;6.466;2022-12-18T01:02:31;45.80;;;21.17;;
20375;SDS011;10347;51.828;6.466;2022-12-18T01:04:57;39.88;;;18.98;;
20375;SDS011;10347;51.828;6.466;2022-12-18T01:07:22;42.90;;;18.00;;
20375;SDS011;10347;51.828;6.466;2022-12-18T01:09:48;40.90;;;18.20;;
20375;SDS011;10347;51.828;6.466;2022-12-18T01:12:14;40.08;;;17.92;;
20375;SDS011;10347;51.828;6.466;2022-12-18T01:14:39;35.85;;;18.27;;
20375;SDS011;10347;51.828;6.466;2022-12-18T01:17:05;35.97;;;16.85;;
20375;SDS011;10347;51.828;6.466;2022-12-18T01:19:30;43.97;;;18.92;;
20375;SDS011;10347;51.828;6.466;2022-12-18T01:21:56;46.50;;;21.80;;
20375;SDS011;10347;51.828;6.466;2022-12-18T01:24:22;48.35;;;20.50;;
20375;SDS011;10347;51.828;6.466;2022-12-18T01:26:48;40.72;;;18.35;;
20375;SDS011;10347;51.828;6.466;2022-12-18T01:29:13;41.22;;;18.48;;
20375;SDS011;10347;51.828;6.466;2022-12-18T01:31:39;44.70;;;19.73;;
20375;SDS011;10347;51.828;6.466;2022-12-18T01:34:05;37.35;;;18.20;;
20375;SDS011;10347;51.828;6.466;2022-12-18T01:36:34;44.05;;;20.35;;
20375;SDS011;10347;51.828;6.466;2022-12-18T01:39:03;40.92;;;18.35;;
20375;SDS011;10347;51.828;6.466;2022-12-18T01:41:30;39.58;;;17.98;;
20375;SDS011;10347;51.828;6.466;2022-12-18T01:47:21;31.20;;;16.67;;
20375;SDS011;10347;51.828;6.466;2022-12-18T01:49:54;34.88;;;16.45;;
20375;SDS011;10347;51.828;6.466;2022-12-18T01:52:21;37.92;;;18.80;;
20375;SDS011;10347;51.828;6.466;2022-12-18T01:54:49;35.10;;;17.75;;
20375;SDS011;10347;51.828;6.466;2022-12-18T01:57:16;39.58;;;17.40;;
20375;SDS011;10347;51.828;6.466;2022-12-18T01:59:42;37.22;;;17.27;;
20375;SDS011;10347;51.828;6.466;2022-12-18T02:02:12;34.53;;;16.92;;
20375;SDS011;10347;51.828;6.466;2022-12-18T02:04:38;30.38;;;15.68;;
20375;SDS011;10347;51.828;6.466;2022-12-18T02:07:11;35.33;;;17.85;;
20375;SDS011;10347;51.828;6.466;2022-12-18T02:09:55;30.08;;;15.20;;
20375;SDS011;10347;51.828;6.466;2022-12-18T02:12:30;36.50;;;17.60;;
20375;SDS011;10347;51.828;6.466;2022-12-18T02:20:31;38.55;;;16.73;;
20375;SDS011;10347;51.828;6.466;2022-12-18T02:23:04;30.90;;;15.55;;
20375;SDS011;10347;51.828;6.466;2022-12-18T02:26:11;30.27;;;15.60;;
20375;SDS011;10347;51.828;6.466;2022-12-18T02:29:03;30.95;;;15.18;;
20375;SDS011;10347;51.828;6.466;2022-12-18T02:31:35;29.52;;;14.55;;
20375;SDS011;10347;51.828;6.466;2022-12-18T02:34:08;27.45;;;14.88;;
20375;SDS011;10347;51.828;6.466;2022-12-18T02:36:35;33.08;;;15.32;;
20375;SDS011;10347;51.828;6.466;2022-12-18T02:39:04;31.65;;;15.70;;
20375;SDS011;10347;51.828;6.466;2022-12-18T02:41:32;29.15;;;14.45;;
20375;SDS011;10347;51.828;6.466;2022-12-18T02:44:00;29.42;;;14.90;;
20375;SDS011;10347;51.828;6.466;2022-12-18T02:46:32;32.70;;;15.27;;
20375;SDS011;10347;51.828;6.466;2022-12-18T03:00:12;27.55;;;15.23;;
20375;SDS011;10347;51.828;6.466;2022-12-18T03:05:25;37.35;;;15.52;;
20375;SDS011;10347;51.828;6.466;2022-12-18T03:07:57;31.13;;;15.88;;
20375;SDS011;10347;51.828;6.466;2022-12-18T03:10:32;36.53;;;15.57;;
20375;SDS011;10347;51.828;6.466;2022-12-18T03:13:04;27.33;;;14.10;;
20375;SDS011;10347;51.828;6.466;2022-12-18T03:15:42;27.77;;;15.30;;
20375;SDS011;10347;51.828;6.466;2022-12-18T03:18:32;30.50;;;14.18;;
20375;SDS011;10347;51.828;6.466;2022-12-18T03:21:05;30.17;;;14.57;;
20375;SDS011;10347;51.828;6.466;2022-12-18T03:23:34;24.60;;;13.70;;
20375;SDS011;10347;51.828;6.466;2022-12-18T03:26:05;23.52;;;12.57;;
20375;SDS011;10347;51.828;6.466;2022-12-18T03:28:35;26.00;;;13.60;;
20375;SDS011;10347;51.828;6.466;2022-12-18T03:31:04;31.40;;;14.27;;
20375;SDS011;10347;51.828;6.466;2022-12-18T03:36:07;26.38;;;13.20;;
20375;SDS011;10347;51.828;6.466;2022-12-18T03:38:33;22.43;;;12.33;;
20375;SDS011;10347;51.828;6.466;2022-12-18T03:43:45;22.10;;;12.45;;
20375;SDS011;10347;51.828;6.466;2022-12-18T03:46:54;21.50;;;11.75;;
20375;SDS011;10347;51.828;6.466;2022-12-18T03:52:09;24.77;;;12.83;;
20375;SDS011;10347;51.828;6.466;2022-12-18T03:54:56;26.92;;;12.63;;
20375;SDS011;10347;51.828;6.466;2022-12-18T03:57:25;24.67;;;13.85;;
20375;SDS011;10347;51.828;6.466;2022-12-18T03:59:56;27.23;;;13.40;;
20375;SDS011;10347;51.828;6.466;2022-12-18T04:02:25;28.48;;;13.32;;
20375;SDS011;10347;51.828;6.466;2022-12-18T04:04:55;27.07;;;13.57;;
20375;SDS011;10347;51.828;6.466;2022-12-18T04:07:23;26.23;;;13.73;;
20375;SDS011;10347;51.828;6.466;2022-12-18T04:09:49;30.02;;;14.32;;
20375;SDS011;10347;51.828;6.466;2022-12-18T04:12:18;26.30;;;14.10;;
20375;SDS011;10347;51.828;6.466;2022-12-18T04:14:44;28.10;;;14.57;;
20375;SDS011;10347;51.828;6.466;2022-12-18T04:17:10;26.50;;;14.17;;
20375;SDS011;10347;51.828;6.466;2022-12-18T04:19:35;30.60;;;15.30;;
20375;SDS011;10347;51.828;6.466;2022-12-18T04:22:01;29.60;;;15.30;;
20375;SDS011;10347;51.828;6.466;2022-12-18T04:24:26;32.60;;;15.75;;
20375;SDS011;10347;51.828;6.466;2022-12-18T04:26:52;36.45;;;16.38;;
20375;SDS011;10347;51.828;6.466;2022-12-18T04:29:17;32.72;;;16.00;;
20375;SDS011;10347;51.828;6.466;2022-12-18T04:31:43;29.58;;;15.15;;
20375;SDS011;10347;51.828;6.466;2022-12-18T04:34:09;32.47;;;16.33;;
20375;SDS011;10347;51.828;6.466;2022-12-18T04:36:34;36.75;;;16.83;;
20375;SDS011;10347;51.828;6.466;2022-12-18T04:39:00;35.95;;;17.33;;
20375;SDS011;10347;51.828;6.466;2022-12-18T04:41:25;32.20;;;15.17;;
20375;SDS011;10347;51.828;6.466;2022-12-18T04:43:51;30.02;;;14.50;;
20375;SDS011;10347;51.828;6.466;2022-12-18T04:46:16;36.03;;;15.70;;
20375;SDS011;10347;51.828;6.466;2022-12-18T04:48:44;33.85;;;15.90;;
20375;SDS011;10347;51.828;6.466;2022-12-18T04:51:11;31.00;;;15.07;;
20375;SDS011;10347;51.828;6.466;2022-12-18T04:53:37;31.20;;;15.25;;
20375;SDS011;10347;51.828;6.466;2022-12-18T04:56:06;29.27;;;15.40;;
20375;SDS011;10347;51.828;6.466;2022-12-18T04:58:34;30.30;;;15.65;;
20375;SDS011;10347;51.828;6.466;2022-12-18T05:01:00;33.07;;;14.73;;
20375;SDS011;10347;51.828;6.466;2022-12-18T05:03:26;29.98;;;15.05;;
20375;SDS011;10347;51.828;6.466;2022-12-18T05:05:52;32.00;;;15.17;;
20375;SDS011;10347;51.828;6.466;2022-12-18T05:08:17;31.52;;;14.57;;
20375;SDS011;10347;51.828;6.466;2022-12-18T05:10:43;32.92;;;14.98;;
20375;SDS011;10347;51.828;6.466;2022-12-18T05:13:09;30.33;;;14.13;;
20375;SDS011;10347;51.828;6.466;2022-12-18T05:15:35;33.80;;;14.43;;
20375;SDS011;10347;51.828;6.466;2022-12-18T05:18:01;34.83;;;15.37;;
20375;SDS011;10347;51.828;6.466;2022-12-18T05:20:27;32.00;;;15.33;;
20375;SDS011;10347;51.828;6.466;2022-12-18T05:22:53;30.17;;;14.67;;
20375;SDS011;10347;51.828;6.466;2022-12-18T05:25:19;28.87;;;14.60;;
20375;SDS011;10347;51.828;6.466;2022-12-18T05:27:45;28.90;;;14.27;;
20375;SDS011;10347;51.828;6.466;2022-12-18T05:30:11;28.87;;;14.27;;
20375;SDS011;10347;51.828;6.466;2022-12-18T05:32:38;30.40;;;14.48;;
20375;SDS011;10347;51.828;6.466;2022-12-18T05:35:05;25.92;;;13.25;;
20375;SDS011;10347;51.828;6.466;2022-12-18T05:37:31;25.08;;;13.05;;
20375;SDS011;10347;51.828;6.466;2022-12-18T05:39:57;24.90;;;13.25;;
20375;SDS011;10347;51.828;6.466;2022-12-18T05:42:23;22.23;;;12.43;;
20375;SDS011;10347;51.828;6.466;2022-12-18T05:44:48;21.00;;;12.30;;
20375;SDS011;10347;51.828;6.466;2022-12-18T05:47:14;24.47;;;12.33;;
20375;SDS011;10347;51.828;6.466;2022-12-18T05:49:40;26.63;;;13.07;;
20375;SDS011;10347;51.828;6.466;2022-12-18T05:52:05;24.67;;;12.18;;
20375;SDS011;10347;51.828;6.466;2022-12-18T05:54:31;23.90;;;13.10;;
20375;SDS011;10347;51.828;6.466;2022-12-18T05:56:57;25.55;;;12.88;;
20375;SDS011;10347;51.828;6.466;2022-12-18T05:59:23;23.67;;;11.73;;
20375;SDS011;10347;51.828;6.466;2022-12-18T06:01:48;22.92;;;12.30;;
20375;SDS011;10347;51.828;6.466;2022-12-18T06:04:14;21.13;;;11.63;;
20375;SDS011;10347;51.828;6.466;2022-12-18T06:06:40;22.38;;;12.15;;
20375;SDS011;10347;51.828;6.466;2022-12-18T06:09:05;24.00;;;13.02;;
20375;SDS011;10347;51.828;6.466;2022-12-18T06:11:38;26.02;;;12.57;;
20375;SDS011;10347;51.828;6.466;2022-12-18T06:14:04;26.60;;;13.30;;
20375;SDS011;10347;51.828;6.466;2022-12-18T06:16:31;28.23;;;13.87;;
20375;SDS011;10347;51.828;6.466;2022-12-18T06:18:57;25.13;;;12.85;;
20375;SDS011;10347;51.828;6.466;2022-12-18T06:21:23;26.27;;;13.43;;
20375;SDS011;10347;51.828;6.466;2022-12-18T06:23:49;28.17;;;13.77;;
20375;SDS011;10347;51.828;6.466;2022-12-18T06:26:15;27.80;;;13.50;;
20375;SDS011;10347;51.828;6.466;2022-12-18T06:28:40;27.30;;;13.77;;
20375;SDS011;10347;51.828;6.466;2022-12-18T06:31:07;31.97;;;15.97;;
20375;SDS011;10347;51.828;6.466;2022-12-18T06:33:33;34.78;;;17.23;;
20375;SDS011;10347;51.828;6.466;2022-12-18T06:36:00;36.38;;;16.65;;
20375;SDS011;10347;51.828;6.466;2022-12-18T06:38:28;32.47;;;16.17;;
20375;SDS011;10347;51.828;6.466;2022-12-18T06:40:53;32.00;;;15.43;;
20375;SDS011;10347;51.828;6.466;2022-12-18T06:43:19;29.37;;;14.47;;
20375;SDS011;10347;51.828;6.466;2022-12-18T06:45:45;27.33;;;13.97;;
20375;SDS011;10347;51.828;6.466;2022-12-18T06:48:14;28.83;;;15.20;;
20375;SDS011;10347;51.828;6.466;2022-12-18T06:50:41;28.97;;;14.97;;
20375;SDS011;10347;51.828;6.466;2022-12-18T06:53:07;24.27;;;13.07;;
20375;SDS011;10347;51.828;6.466;2022-12-18T06:55:33;23.95;;;12.57;;
20375;SDS011;10347;51.828;6.466;2022-12-18T06:57:58;26.13;;;13.83;;
20375;SDS011;10347;51.828;6.466;2022-12-18T07:00:24;28.10;;;13.80;;
20375;SDS011;10347;51.828;6.466;2022-12-18T07:02:49;25.73;;;13.90;;
20375;SDS011;10347;51.828;6.466;2022-12-18T07:05:15;25.63;;;13.73;;
20375;SDS011;10347;51.828;6.466;2022-12-18T07:07:40;33.22;;;15.60;;
20375;SDS011;10347;51.828;6.466;2022-12-18T07:10:06;26.88;;;14.00;;
20375;SDS011;10347;51.828;6.466;2022-12-18T07:12:32;28.00;;;14.70;;
20375;SDS011;10347;51.828;6.466;2022-12-18T07:14:57;26.77;;;13.53;;
20375;SDS011;10347;51.828;6.466;2022-12-18T07:17:23;26.13;;;13.17;;
20375;SDS011;10347;51.828;6.466;2022-12-18T07:19:48;23.02;;;12.55;;
20375;SDS011;10347;51.828;6.466;2022-12-18T07:22:14;20.90;;;11.88;;
20375;SDS011;10347;51.828;6.466;2022-12-18T07:24:40;26.02;;;13.40;;
20375;SDS011;10347;51.828;6.466;2022-12-18T07:27:05;31.35;;;13.65;;
20375;SDS011;10347;51.828;6.466;2022-12-18T07:29:31;27.37;;;14.13;;
20375;SDS011;10347;51.828;6.466;2022-12-18T07:31:56;26.13;;;12.83;;
20375;SDS011;10347;51.828;6.466;2022-12-18T07:34:22;22.10;;;12.13;;
20375;SDS011;10347;51.828;6.466;2022-12-18T07:36:47;22.13;;;12.20;;
20375;SDS011;10347;51.828;6.466;2022-12-18T07:39:13;25.08;;;12.48;;
20375;SDS011;10347;51.828;6.466;2022-12-18T07:41:38;21.40;;;12.23;;
20375;SDS011;10347;51.828;6.466;2022-12-18T07:44:09;20.57;;;11.13;;
20375;SDS011;10347;51.828;6.466;2022-12-18T07:46:35;17.50;;;10.20;;
20375;SDS011;10347;51.828;6.466;2022-12-18T07:49:01;21.93;;;11.43;;
20375;SDS011;10347;51.828;6.466;2022-12-18T07:51:26;19.53;;;10.53;;
20375;SDS011;10347;51.828;6.466;2022-12-18T07:53:52;20.40;;;11.47;;
20375;SDS011;10347;51.828;6.466;2022-12-18T07:56:18;20.70;;;11.80;;
20375;SDS011;10347;51.828;6.466;2022-12-18T07:58:44;20.23;;;11.40;;
20375;SDS011;10347;51.828;6.466;2022-12-18T08:01:12;26.57;;;13.07;;
20375;SDS011;10347;51.828;6.466;2022-12-18T08:03:38;21.97;;;12.20;;
20375;SDS011;10347;51.828;6.466;2022-12-18T08:06:06;25.17;;;13.37;;
20375;SDS011;10347;51.828;6.466;2022-12-18T08:08:33;30.45;;;14.88;;
20375;SDS011;10347;51.828;6.466;2022-12-18T08:11:00;26.83;;;13.13;;
20375;SDS011;10347;51.828;6.466;2022-12-18T08:13:26;22.50;;;12.20;;
20375;SDS011;10347;51.828;6.466;2022-12-18T08:15:59;25.57;;;12.67;;
20375;SDS011;10347;51.828;6.466;2022-12-18T08:18:27;21.63;;;11.87;;
20375;SDS011;10347;51.828;6.466;2022-12-18T08:20:53;19.58;;;11.35;;
20375;SDS011;10347;51.828;6.466;2022-12-18T08:23:19;20.45;;;11.40;;
20375;SDS011;10347;51.828;6.466;2022-12-18T08:25:45;21.43;;;11.47;;
20375;SDS011;10347;51.828;6.466;2022-12-18T08:28:10;21.60;;;11.90;;
20375;SDS011;10347;51.828;6.466;2022-12-18T08:30:36;24.17;;;12.23;;
20375;SDS011;10347;51.828;6.466;2022-12-18T08:33:02;22.70;;;12.90;;
20375;SDS011;10347;51.828;6.466;2022-12-18T08:35:28;17.60;;;10.32;;
20375;SDS011;10347;51.828;6.466;2022-12-18T08:37:54;23.08;;;11.15;;
20375;SDS011;10347;51.828;6.466;2022-12-18T08:40:20;19.30;;;11.13;;
20375;SDS011;10347;51.828;6.466;2022-12-18T08:42:45;23.05;;;12.77;;
20375;SDS011;10347;51.828;6.466;2022-12-18T08:45:29;23.98;;;12.48;;
20375;SDS011;10347;51.828;6.466;2022-12-18T08:47:55;20.20;;;11.90;;
20375;SDS011;10347;51.828;6.466;2022-12-18T08:50:21;19.45;;;11.27;;
20375;SDS011;10347;51.828;6.466;2022-12-18T08:52:46;22.73;;;11.50;;
20375;SDS011;10347;51.828;6.466;2022-12-18T08:55:12;19.52;;;11.35;;
20375;SDS011;10347;51.828;6.466;2022-12-18T08:57:37;17.80;;;11.07;;
20375;SDS011;10347;51.828;6.466;2022-12-18T09:00:03;19.63;;;11.47;;
20375;SDS011;10347;51.828;6.466;2022-12-18T09:02:29;18.60;;;11.10;;
20375;SDS011;10347;51.828;6.466;2022-12-18T09:04:55;19.52;;;11.45;;
20375;SDS011;10347;51.828;6.466;2022-12-18T09:07:20;21.67;;;12.07;;
20375;SDS011;10347;51.828;6.466;2022-12-18T09:09:46;17.63;;;11.02;;
20375;SDS011;10347;51.828;6.466;2022-12-18T09:12:11;17.83;;;10.50;;
20375;SDS011;10347;51.828;6.466;2022-12-18T09:14:37;14.30;;;9.23;;
20375;SDS011;10347;51.828;6.466;2022-12-18T09:17:02;15.75;;;8.90;;
20375;SDS011;10347;51.828;6.466;2022-12-18T09:19:28;18.60;;;9.70;;
20375;SDS011;10347;51.828;6.466;2022-12-18T09:21:54;12.52;;;8.60;;
20375;SDS011;10347;51.828;6.466;2022-12-18T09:24:19;12.68;;;8.35;;
20375;SDS011;10347;51.828;6.466;2022-12-18T09:26:45;15.43;;;8.48;;
20375;SDS011;10347;51.828;6.466;2022-12-18T09:29:10;11.57;;;7.75;;
20375;SDS011;10347;51.828;6.466;2022-12-18T09:31:36;14.88;;;9.15;;
20375;SDS011;10347;51.828;6.466;2022-12-18T09:34:02;12.43;;;8.43;;
20375;SDS011;10347;51.828;6.466;2022-12-18T09:36:28;16.00;;;9.43;;
20375;SDS011;10347;51.828;6.466;2022-12-18T09:38:54;16.80;;;9.68;;
20375;SDS011;10347;51.828;6.466;2022-12-18T09:43:58;16.70;;;9.40;;
20375;SDS011;10347;51.828;6.466;2022-12-18T09:46:32;17.65;;;10.18;;
20375;SDS011;10347;51.828;6.466;2022-12-18T09:49:02;17.92;;;10.70;;
20375;SDS011;10347;51.828;6.466;2022-12-18T09:51:35;19.58;;;11.10;;
20375;SDS011;10347;51.828;6.466;2022-12-18T09:54:05;15.32;;;9.43;;
20375;SDS011;10347;51.828;6.466;2022-12-18T09:56:38;14.93;;;9.50;;
20375;SDS011;10347;51.828;6.466;2022-12-18T09:59:09;14.80;;;10.07;;
20375;SDS011;10347;51.828;6.466;2022-12-18T10:01:42;17.73;;;9.68;;
20375;SDS011;10347;51.828;6.466;2022-12-18T10:04:08;12.88;;;8.73;;
20375;SDS011;10347;51.828;6.466;2022-12-18T10:06:35;15.80;;;8.77;;
20375;SDS011;10347;51.828;6.466;2022-12-18T10:09:23;12.75;;;7.90;;
20375;SDS011;10347;51.828;6.466;2022-12-18T10:12:38;14.57;;;8.52;;
20375;SDS011;10347;51.828;6.466;2022-12-18T10:17:57;14.30;;;9.23;;
20375;SDS011;10347;51.828;6.466;2022-12-18T10:23:09;13.95;;;8.50;;
20375;SDS011;10347;51.828;6.466;2022-12-18T10:26:05;13.57;;;8.32;;
20375;SDS011;10347;51.828;6.466;2022-12-18T10:28:35;13.65;;;8.77;;
20375;SDS011;10347;51.828;6.466;2022-12-18T10:31:02;12.50;;;8.65;;
20375;SDS011;10347;51.828;6.466;2022-12-18T10:33:31;14.32;;;8.35;;
20375;SDS011;10347;51.828;6.466;2022-12-18T10:35:58;11.98;;;8.07;;
20375;SDS011;10347;51.828;6.466;2022-12-18T10:38:26;10.85;;;7.60;;
20375;SDS011;10347;51.828;6.466;2022-12-18T10:43:37;11.55;;;7.85;;
20375;SDS011;10347;51.828;6.466;2022-12-18T10:48:33;15.68;;;9.40;;
20375;SDS011;10347;51.828;6.466;2022-12-18T10:51:16;13.70;;;8.30;;
20375;SDS011;10347;51.828;6.466;2022-12-18T10:53:54;13.77;;;8.70;;
20375;SDS011;10347;51.828;6.466;2022-12-18T10:56:23;12.80;;;8.98;;
20375;SDS011;10347;51.828;6.466;2022-12-18T10:59:03;15.30;;;9.10;;
20375;SDS011;10347;51.828;6.466;2022-12-18T11:04:16;16.65;;;9.90;;
20375;SDS011;10347;51.828;6.466;2022-12-18T11:06:56;13.40;;;8.73;;
20375;SDS011;10347;51.828;6.466;2022-12-18T11:09:35;13.32;;;8.73;;
20375;SDS011;10347;51.828;6.466;2022-12-18T11:12:08;12.05;;;8.40;;
20375;SDS011;10347;51.828;6.466;2022-12-18T11:14:51;12.40;;;7.90;;
20375;SDS011;10347;51.828;6.466;2022-12-18T11:17:19;13.80;;;9.02;;
20375;SDS011;10347;51.828;6.466;2022-12-18T11:19:51;13.77;;;8.45;;
20375;SDS011;10347;51.828;6.466;2022-12-18T11:22:20;12.65;;;8.13;;
20375;SDS011;10347;51.828;6.466;2022-12-18T11:27:30;13.70;;;8.27;;
20375;SDS011;10347;51.828;6.466;2022-12-18T11:32:56;13.20;;;7.65;;
20375;SDS011;10347;51.828;6.466;2022-12-18T11:35:45;12.15;;;7.90;;
20375;SDS011;10347;51.828;6.466;2022-12-18T11:38:23;11.52;;;7.90;;
20375;SDS011;10347;51.828;6.466;2022-12-18T11:40:53;11.10;;;7.50;;
20375;SDS011;10347;51.828;6.466;2022-12-18T11:43:48;11.50;;;7.82;;
20375;SDS011;10347;51.828;6.466;2022-12-18T11:46:32;11.75;;;8.32;;
20375;SDS011;10347;51.828;6.466;2022-12-18T11:51:37;11.57;;;7.47;;
20375;SDS011;10347;51.828;6.466;2022-12-18T11:54:12;10.63;;;7.57;;
20375;SDS011;10347;51.828;6.466;2022-12-18T11:56:43;13.05;;;8.32;;
20375;SDS011;10347;51.828;6.466;2022-12-18T11:59:39;13.43;;;7.72;;
20375;SDS011;10347;51.828;6.466;2022-12-18T12:02:37;10.23;;;7.30;;
20375;SDS011;10347;51.828;6.466;2022-12-18T12:05:12;13.77;;;8.35;;
20375;SDS011;10347;51.828;6.466;2022-12-18T12:07:54;12.57;;;7.88;;
20375;SDS011;10347;51.828;6.466;2022-12-18T12:13:23;14.80;;;8.80;;
20375;SDS011;10347;51.828;6.466;2022-12-18T12:21:09;12.85;;;8.05;;
20375;SDS011;10347;51.828;6.466;2022-12-18T12:26:23;17.25;;;9.65;;
20375;SDS011;10347;51.828;6.466;2022-12-18T12:34:06;26.40;;;11.80;;
20375;SDS011;10347;51.828;6.466;2022-12-18T12:39:48;17.60;;;9.65;;
20375;SDS011;10347;51.828;6.466;2022-12-18T12:42:20;13.70;;;8.55;;
20375;SDS011;10347;51.828;6.466;2022-12-18T12:45:11;10.90;;;7.07;;
20375;SDS011;10347;51.828;6.466;2022-12-18T12:47:46;14.18;;;8.27;;
20375;SDS011;10347;51.828;6.466;2022-12-18T12:50:16;11.13;;;7.22;;
20375;SDS011;10347;51.828;6.466;2022-12-18T12:52:45;10.68;;;7.18;;
20375;SDS011;10347;51.828;6.466;2022-12-18T12:55:21;10.20;;;6.88;;
20375;SDS011;10347;51.828;6.466;2022-12-18T13:08:55;12.40;;;7.70;;
20375;SDS011;10347;51.828;6.466;2022-12-18T13:11:39;11.70;;;7.40;;
20375;SDS011;10347;51.828;6.466;2022-12-18T13:14:25;11.93;;;7.22;;
20375;SDS011;10347;51.828;6.466;2022-12-18T13:17:16;13.88;;;8.52;;
20375;SDS011;10347;51.828;6.466;2022-12-18T13:20:08;17.70;;;10.45;;
20375;SDS011;10347;51.828;6.466;2022-12-18T13:22:37;19.50;;;11.48;;
20375;SDS011;10347;51.828;6.466;2022-12-18T13:25:29;21.65;;;11.70;;
20375;SDS011;10347;51.828;6.466;2022-12-18T13:28:01;16.58;;;10.02;;
20375;SDS011;10347;51.828;6.466;2022-12-18T13:38:24;17.75;;;10.77;;
20375;SDS011;10347;51.828;6.466;2022-12-18T13:41:03;16.00;;;10.40;;
20375;SDS011;10347;51.828;6.466;2022-12-18T13:43:54;14.57;;;9.60;;
20375;SDS011;10347;51.828;6.466;2022-12-18T13:46:43;13.20;;;9.02;;
20375;SDS011;10347;51.828;6.466;2022-12-18T13:51:42;17.73;;;10.55;;
20375;SDS011;10347;51.828;6.466;2022-12-18T13:54:17;17.45;;;9.80;;
20375;SDS011;10347;51.828;6.466;2022-12-18T13:56:44;15.18;;;9.60;;
20375;SDS011;10347;51.828;6.466;2022-12-18T14:01:50;14.35;;;8.90;;
20375;SDS011;10347;51.828;6.466;2022-12-18T14:04:22;15.48;;;9.20;;
20375;SDS011;10347;51.828;6.466;2022-12-18T14:07:01;13.35;;;8.88;;
20375;SDS011;10347;51.828;6.466;2022-12-18T14:09:31;13.43;;;8.40;;
20375;SDS011;10347;51.828;6.466;2022-12-18T14:12:00;12.10;;;8.30;;
20375;SDS011;10347;51.828;6.466;2022-12-18T14:14:46;11.57;;;7.82;;
20375;SDS011;10347;51.828;6.466;2022-12-18T14:17:14;12.88;;;8.02;;
20375;SDS011;10347;51.828;6.466;2022-12-18T14:19:50;11.82;;;7.55;;
20375;SDS011;10347;51.828;6.466;2022-12-18T14:22:20;12.80;;;7.93;;
20375;SDS011;10347;51.828;6.466;2022-12-18T14:25:15;12.80;;;9.02;;
20375;SDS011;10347;51.828;6.466;2022-12-18T14:27:42;13.93;;;8.40;;
20375;SDS011;10347;51.828;6.466;2022-12-18T14:30:23;14.23;;;8.85;;
20375;SDS011;10347;51.828;6.466;2022-12-18T14:33:11;11.85;;;8.10;;
20375;SDS011;10347;51.828;6.466;2022-12-18T14:35:39;14.98;;;8.82;;
20375;SDS011;10347;51.828;6.466;2022-12-18T14:38:11;11.85;;;8.23;;
20375;SDS011;10347;51.828;6.466;2022-12-18T14:40:46;13.98;;;8.60;;
20375;SDS011;10347;51.828;6.466;2022-12-18T14:43:11;12.82;;;8.38;;
20375;SDS011;10347;51.828;6.466;2022-12-18T14:45:38;12.20;;;8.38;;
20375;SDS011;10347;51.828;6.466;2022-12-18T14:48:07;11.02;;;7.20;;
20375;SDS011;10347;51.828;6.466;2022-12-18T14:50:38;14.57;;;8.80;;
20375;SDS011;10347;51.828;6.466;2022-12-18T14:53:04;15.93;;;9.07;;
20375;SDS011;10347;51.828;6.466;2022-12-18T14:55:32;16.17;;;8.88;;
20375;SDS011;10347;51.828;6.466;2022-12-18T14:57:58;13.98;;;7.90;;
20375;SDS011;10347;51.828;6.466;2022-12-18T15:00:24;14.25;;;8.77;;
20375;SDS011;10347;51.828;6.466;2022-12-18T15:02:54;14.25;;;8.10;;
20375;SDS011;10347;51.828;6.466;2022-12-18T15:08:03;13.80;;;8.52;;
20375;SDS011;10347;51.828;6.466;2022-12-18T15:10:48;14.15;;;8.73;;
20375;SDS011;10347;51.828;6.466;2022-12-18T15:13:20;11.98;;;7.97;;
20375;SDS011;10347;51.828;6.466;2022-12-18T15:15:47;16.95;;;9.65;;
20375;SDS011;10347;51.828;6.466;2022-12-18T15:18:15;13.13;;;8.68;;
20375;SDS011;10347;51.828;6.466;2022-12-18T15:20:44;15.68;;;9.52;;
20375;SDS011;10347;51.828;6.466;2022-12-18T15:23:35;16.10;;;8.77;;
20375;SDS011;10347;51.828;6.466;2022-12-18T15:26:18;13.35;;;8.70;;
20375;SDS011;10347;51.828;6.466;2022-12-18T15:33:43;12.98;;;7.85;;
20375;SDS011;10347;51.828;6.466;2022-12-18T15:36:17;14.20;;;8.73;;
20375;SDS011;10347;51.828;6.466;2022-12-18T15:38:46;13.95;;;8.63;;
20375;SDS011;10347;51.828;6.466;2022-12-18T15:41:13;13.93;;;8.38;;
20375;SDS011;10347;51.828;6.466;2022-12-18T15:43:40;15.30;;;8.50;;
20375;SDS011;10347;51.828;6.466;2022-12-18T15:46:08;12.40;;;8.45;;
20375;SDS011;10347;51.828;6.466;2022-12-18T15:48:39;13.25;;;8.38;;
20375;SDS011;10347;51.828;6.466;2022-12-18T15:51:16;15.52;;;9.63;;
20375;SDS011;10347;51.828;6.466;2022-12-18T15:53:55;15.05;;;8.68;;
20375;SDS011;10347;51.828;6.466;2022-12-18T15:56:23;16.98;;;9.15;;
20375;SDS011;10347;51.828;6.466;2022-12-18T15:59:11;14.02;;;9.02;;
20375;SDS011;10347;51.828;6.466;2022-12-18T16:01:38;14.07;;;8.60;;
20375;SDS011;10347;51.828;6.466;2022-12-18T16:04:04;17.92;;;9.65;;
20375;SDS011;10347;51.828;6.466;2022-12-18T16:06:30;18.15;;;10.20;;
20375;SDS011;10347;51.828;6.466;2022-12-18T16:08:56;17.55;;;9.57;;
20375;SDS011;10347;51.828;6.466;2022-12-18T16:11:22;19.27;;;11.02;;
20375;SDS011;10347;51.828;6.466;2022-12-18T16:14:11;16.48;;;10.02;;
20375;SDS011;10347;51.828;6.466;2022-12-18T16:16:50;18.80;;;11.52;;
20375;SDS011;10347;51.828;6.466;2022-12-18T16:19:18;18.67;;;10.45;;
20375;SDS011;10347;51.828;6.466;2022-12-18T16:21:45;20.75;;;11.70;;
20375;SDS011;10347;51.828;6.466;2022-12-18T16:24:13;19.60;;;12.02;;
20375;SDS011;10347;51.828;6.466;2022-12-18T16:26:41;18.70;;;10.40;;
20375;SDS011;10347;51.828;6.466;2022-12-18T16:29:07;23.23;;;12.38;;